createdAt,value
2019-03-20T00:02:26.091Z,7.57
2019-03-20T00:05:07.979Z,7.07
2019-03-20T00:07:50.591Z,6.23
2019-03-20T00:10:32.557Z,5.33
2019-03-20T00:13:14.406Z,7.13
2019-03-20T00:15:56.969Z,6.63
2019-03-20T00:18:39.201Z,5.47
2019-03-20T00:21:21.329Z,6.20
2019-03-20T00:24:03.651Z,5.60
2019-03-20T00:26:45.571Z,5.65
2019-03-20T00:29:27.932Z,8.03
2019-03-20T00:32:10.038Z,5.50
2019-03-20T00:35:00.554Z,5.50
2019-03-20T00:37:35.764Z,5.08
2019-03-20T00:40:17.858Z,7.53
2019-03-20T00:43:00.184Z,5.20
2019-03-20T00:45:42.675Z,8.50
2019-03-20T00:48:24.464Z,9.78
2019-03-20T00:51:06.405Z,6.47
2019-03-20T00:53:48.429Z,8.60
2019-03-20T00:56:30.690Z,7.53
2019-03-20T00:59:12.568Z,7.17
2019-03-20T01:01:54.736Z,7.60
2019-03-20T01:04:36.578Z,6.72
2019-03-20T01:07:18.771Z,6.00
2019-03-20T01:10:00.785Z,7.22
2019-03-20T01:12:42.807Z,6.93
2019-03-20T01:15:25.014Z,6.83
2019-03-20T01:18:07.106Z,4.83
2019-03-20T01:20:48.834Z,5.10
2019-03-20T01:23:30.884Z,7.33
2019-03-20T01:26:13.128Z,5.33
2019-03-20T01:28:55.048Z,8.88
2019-03-20T01:31:37.100Z,6.67
2019-03-20T01:34:19.138Z,8.10
2019-03-20T01:37:01.056Z,6.50
2019-03-20T01:39:43.292Z,7.40
2019-03-20T01:42:25.159Z,9.65
2019-03-20T01:45:07.287Z,6.57
2019-03-20T01:47:49.102Z,7.40
2019-03-20T01:50:31.282Z,5.90
2019-03-20T01:53:13.114Z,7.12
2019-03-20T01:55:55.333Z,8.80
2019-03-20T01:58:37.137Z,4.87
2019-03-20T02:01:19.321Z,5.95
2019-03-20T02:04:02.007Z,8.05
2019-03-20T02:06:44.723Z,5.80
2019-03-20T02:09:27.084Z,5.08
2019-03-20T02:12:09.050Z,5.83
2019-03-20T02:14:51.176Z,7.83
2019-03-20T02:17:33.205Z,4.75
2019-03-20T02:20:15.234Z,5.15
2019-03-20T02:22:57.231Z,5.12
2019-03-20T02:25:39.237Z,11.73
2019-03-20T02:28:21.406Z,5.17
2019-03-20T02:31:03.372Z,4.17
2019-03-20T02:33:45.310Z,5.85
2019-03-20T02:36:27.445Z,4.92
2019-03-20T02:39:09.630Z,4.78
2019-03-20T02:41:51.446Z,5.10
2019-03-20T02:44:33.497Z,4.70
2019-03-20T02:47:15.550Z,7.28
2019-03-20T02:49:57.728Z,7.62
2019-03-20T02:52:39.791Z,5.58
2019-03-20T02:55:21.505Z,8.63
2019-03-20T02:58:03.621Z,5.62
2019-03-20T03:00:45.592Z,5.05
2019-03-20T03:03:27.483Z,5.00
2019-03-20T03:06:09.313Z,5.28
2019-03-20T03:08:51.182Z,5.80
2019-03-20T03:11:33.283Z,4.78
2019-03-20T03:14:15.677Z,5.67
2019-03-20T03:16:57.767Z,5.20
2019-03-20T03:19:39.847Z,5.28
2019-03-20T03:22:22.494Z,5.20
2019-03-20T03:25:04.474Z,4.72
2019-03-20T03:27:46.716Z,5.90
2019-03-20T03:30:28.655Z,5.25
2019-03-20T03:33:10.988Z,8.38
2019-03-20T03:35:53.128Z,4.08
2019-03-20T03:38:23.999Z,5.92
2019-03-20T03:40:54.760Z,7.05
2019-03-20T03:43:25.420Z,5.28
2019-03-20T03:45:56.281Z,6.53
2019-03-20T03:48:26.897Z,7.55
2019-03-20T03:50:57.489Z,6.85
2019-03-20T03:53:28.316Z,5.55
2019-03-20T03:55:58.979Z,6.30
2019-03-20T03:58:32.650Z,6.85
2019-03-20T04:01:01.723Z,4.85
2019-03-20T04:03:32.254Z,5.47
2019-03-20T04:06:02.816Z,5.35
2019-03-20T04:08:33.388Z,6.00
2019-03-20T04:11:04.370Z,4.37
2019-03-20T04:13:35.214Z,6.30
2019-03-20T04:16:05.872Z,4.60
2019-03-20T04:18:36.511Z,5.67
2019-03-20T04:21:07.104Z,5.33
2019-03-20T04:23:37.670Z,5.72
2019-03-20T04:26:08.143Z,5.42
2019-03-20T04:28:38.824Z,6.12
2019-03-20T04:31:09.624Z,6.20
2019-03-20T04:33:40.699Z,7.72
2019-03-20T04:36:11.446Z,4.90
2019-03-20T04:38:42.007Z,5.40
2019-03-20T04:41:14.391Z,4.20
2019-03-20T04:43:44.940Z,5.75
2019-03-20T04:46:15.968Z,6.33
2019-03-20T04:48:46.475Z,6.78
2019-03-20T04:51:17.200Z,6.67
2019-03-20T04:53:47.798Z,6.25
2019-03-20T04:56:18.463Z,5.83
2019-03-20T04:58:49.125Z,6.50
2019-03-20T05:01:19.718Z,6.00
2019-03-20T05:03:51.513Z,5.33
2019-03-20T05:06:21.998Z,7.70
2019-03-20T05:08:54.725Z,6.17
2019-03-20T05:11:25.933Z,7.70
2019-03-20T05:13:56.526Z,6.37
2019-03-20T05:16:27.198Z,6.67
2019-03-20T05:18:57.725Z,9.33
2019-03-20T05:21:30.031Z,6.30
2019-03-20T05:24:00.544Z,8.75
2019-03-20T05:26:31.157Z,7.42
2019-03-20T05:29:01.923Z,7.67
2019-03-20T05:31:32.976Z,6.78
2019-03-20T05:34:03.749Z,6.35
2019-03-20T05:36:34.453Z,7.30
2019-03-20T05:39:07.475Z,5.95
2019-03-20T05:41:57.152Z,8.10
2019-03-20T05:44:28.639Z,5.92
2019-03-20T05:46:59.455Z,5.05
2019-03-20T05:49:30.175Z,6.25
2019-03-20T05:52:00.929Z,9.38
2019-03-20T05:54:31.529Z,10.53
2019-03-20T05:57:02.423Z,9.68
2019-03-20T05:59:32.972Z,7.55
2019-03-20T06:02:03.635Z,6.72
2019-03-20T06:04:34.159Z,9.75
2019-03-20T06:07:04.765Z,6.92
2019-03-20T06:09:35.220Z,9.23
2019-03-20T06:12:06.107Z,7.60
2019-03-20T06:14:36.722Z,10.53
2019-03-20T06:17:07.317Z,8.50
2019-03-20T06:19:38.108Z,10.90
2019-03-20T06:22:09.101Z,9.63
2019-03-20T06:24:39.853Z,6.92
2019-03-20T06:27:10.492Z,7.83
2019-03-20T06:29:41.092Z,5.45
2019-03-20T06:32:12.079Z,6.03
2019-03-20T06:34:44.101Z,5.87
2019-03-20T06:37:14.857Z,6.33
2019-03-20T06:39:45.486Z,6.12
2019-03-20T06:42:16.232Z,5.85
2019-03-20T06:44:47.554Z,5.95
2019-03-20T06:47:18.321Z,7.28
2019-03-20T06:49:48.925Z,6.33
2019-03-20T06:52:19.846Z,6.85
2019-03-20T06:54:50.613Z,6.47
2019-03-20T06:57:21.423Z,7.67
2019-03-20T07:00:28.904Z,8.00
2019-03-20T07:03:00.563Z,8.10
2019-03-20T07:05:52.628Z,5.70
2019-03-20T07:08:24.891Z,5.00
2019-03-20T07:11:10.094Z,6.22
2019-03-20T07:13:40.729Z,6.45
2019-03-20T07:16:11.663Z,5.53
2019-03-20T07:18:42.671Z,5.17
2019-03-20T07:21:13.509Z,6.00
2019-03-20T07:23:44.152Z,5.10
2019-03-20T07:26:14.807Z,6.53
2019-03-20T07:28:45.275Z,4.83
2019-03-20T07:31:16.182Z,6.35
2019-03-20T07:33:46.678Z,6.40
2019-03-20T07:36:17.093Z,5.17
2019-03-20T07:38:47.726Z,7.45
2019-03-20T07:41:18.409Z,7.47
2019-03-20T07:43:49.173Z,5.10
2019-03-20T07:46:19.755Z,8.95
2019-03-20T07:48:50.263Z,6.33
2019-03-20T07:51:20.915Z,7.03
2019-03-20T07:53:51.875Z,5.90
2019-03-20T07:56:22.739Z,5.45
2019-03-20T07:58:53.767Z,4.70
2019-03-20T08:01:24.207Z,4.67
2019-03-20T08:03:54.781Z,6.63
2019-03-20T08:06:25.293Z,5.93
2019-03-20T08:08:56.427Z,7.47
2019-03-20T08:11:27.049Z,5.05
2019-03-20T08:13:57.615Z,6.67
2019-03-20T08:16:28.227Z,6.53
2019-03-20T08:18:58.740Z,7.70
2019-03-20T08:21:29.412Z,5.10
2019-03-20T08:24:00.123Z,7.03
2019-03-20T08:26:30.974Z,7.50
2019-03-20T08:29:01.535Z,6.37
2019-03-20T08:31:33.092Z,8.53
2019-03-20T08:34:03.765Z,6.00
2019-03-20T08:36:34.419Z,5.57
2019-03-20T08:39:24.033Z,6.83
2019-03-20T08:41:55.287Z,7.43
2019-03-20T08:44:25.763Z,5.40
2019-03-20T08:46:57.877Z,8.10
2019-03-20T08:49:28.597Z,5.90
2019-03-20T08:51:59.119Z,5.33
2019-03-20T08:54:31.603Z,5.73
2019-03-20T08:57:02.329Z,5.10
2019-03-20T08:59:32.899Z,5.97
2019-03-20T09:02:03.430Z,6.20
2019-03-20T09:04:35.791Z,4.70
2019-03-20T09:07:06.353Z,6.90
2019-03-20T09:09:36.902Z,9.23
2019-03-20T09:12:07.576Z,6.80
2019-03-20T09:14:38.305Z,4.70
2019-03-20T09:17:08.831Z,10.93
2019-03-20T09:19:40.561Z,6.33
2019-03-20T09:22:11.260Z,6.53
2019-03-20T09:24:42.119Z,4.67
2019-03-20T09:27:12.626Z,4.50
2019-03-20T09:29:43.255Z,5.13
2019-03-20T09:32:13.811Z,6.70
2019-03-20T09:34:44.300Z,6.57
2019-03-20T09:37:14.923Z,4.07
2019-03-20T09:39:45.510Z,4.90
2019-03-20T09:42:16.128Z,5.37
2019-03-20T09:44:46.728Z,4.67
2019-03-20T09:47:17.447Z,4.57
2019-03-20T09:49:48.063Z,3.63
2019-03-20T09:52:18.713Z,2.83
2019-03-20T09:54:49.357Z,4.73
2019-03-20T09:57:19.955Z,4.60
2019-03-20T09:59:50.452Z,4.43
2019-03-20T10:02:21.014Z,3.17
2019-03-20T10:04:51.634Z,5.77
2019-03-20T10:07:22.276Z,4.07
2019-03-20T10:09:52.781Z,3.90
2019-03-20T10:12:23.569Z,5.60
2019-03-20T10:14:55.487Z,4.90
2019-03-20T10:17:26.037Z,3.60
2019-03-20T10:19:56.563Z,5.30
2019-03-20T10:22:27.413Z,4.10
2019-03-20T10:24:58.587Z,4.00
2019-03-20T10:27:30.590Z,3.03
2019-03-20T10:30:01.163Z,3.70
2019-03-20T10:32:32.094Z,5.43
2019-03-20T10:35:02.755Z,5.60
2019-03-20T10:37:33.206Z,5.40
2019-03-20T10:40:05.864Z,4.20
2019-03-20T10:42:36.884Z,2.13
2019-03-20T10:45:08.389Z,5.10
2019-03-20T10:47:39.057Z,4.47
2019-03-20T10:50:12.229Z,7.70
2019-03-20T10:52:43.073Z,4.00
2019-03-20T10:55:14.087Z,3.37
2019-03-20T10:57:44.647Z,4.60
2019-03-20T11:00:19.465Z,4.60
2019-03-20T11:02:50.029Z,3.00
2019-03-20T11:05:21.245Z,4.00
2019-03-20T11:07:51.800Z,3.97
2019-03-20T11:10:23.025Z,3.40
2019-03-20T11:13:12.636Z,4.63
2019-03-20T11:15:43.687Z,3.80
2019-03-20T11:18:14.289Z,4.67
2019-03-20T11:20:44.769Z,5.10
2019-03-20T11:23:15.242Z,4.40
2019-03-20T11:25:45.751Z,2.00
2019-03-20T11:28:16.203Z,6.13
2019-03-20T11:30:46.814Z,6.03
2019-03-20T11:33:17.363Z,4.03
2019-03-20T11:35:47.898Z,3.10
2019-03-20T11:38:18.634Z,3.70
2019-03-20T11:40:49.246Z,4.33
2019-03-20T11:43:19.783Z,5.17
2019-03-20T11:45:50.916Z,3.20
2019-03-20T11:48:21.756Z,3.23
2019-03-20T11:50:52.952Z,7.00
2019-03-20T11:53:23.580Z,2.97
2019-03-20T11:55:54.206Z,3.80
2019-03-20T11:58:25.107Z,4.80
2019-03-20T12:00:56.768Z,4.20
2019-03-20T12:03:27.485Z,5.30
2019-03-20T12:05:58.191Z,2.37
2019-03-20T12:08:29.025Z,3.30
2019-03-20T12:10:59.869Z,3.60
2019-03-20T12:13:31.079Z,3.83
2019-03-20T12:16:02.474Z,3.07
2019-03-20T12:18:33.398Z,3.57
2019-03-20T12:21:04.015Z,4.73
2019-03-20T12:23:34.702Z,2.97
2019-03-20T12:26:05.657Z,4.43
2019-03-20T12:28:39.842Z,3.93
2019-03-20T12:31:10.404Z,3.40
2019-03-20T12:33:41.203Z,3.90
2019-03-20T12:36:11.891Z,2.50
2019-03-20T12:38:42.481Z,5.80
2019-03-20T12:41:13.377Z,5.93
2019-03-20T12:43:45.514Z,3.63
2019-03-20T12:46:16.413Z,2.57
2019-03-20T12:48:47.286Z,5.77
2019-03-20T12:51:17.831Z,3.30
2019-03-20T12:53:50.247Z,2.40
2019-03-20T12:56:20.848Z,2.47
2019-03-20T12:58:51.452Z,2.57
2019-03-20T13:01:22.168Z,5.77
2019-03-20T13:03:54.006Z,3.83
2019-03-20T13:06:24.608Z,4.97
2019-03-20T13:08:55.913Z,5.30
2019-03-20T13:11:26.547Z,3.33
2019-03-20T13:13:57.139Z,3.40
2019-03-20T13:16:29.615Z,4.30
2019-03-20T13:19:01.149Z,5.03
2019-03-20T13:21:31.991Z,3.03
2019-03-20T13:24:02.591Z,3.73
2019-03-20T13:26:33.694Z,4.33
2019-03-20T13:29:04.449Z,2.13
2019-03-20T13:31:35.444Z,2.97
2019-03-20T13:34:05.990Z,2.70
2019-03-20T13:36:36.602Z,3.40
2019-03-20T13:39:08.499Z,4.47
2019-03-20T13:41:39.068Z,2.60
2019-03-20T13:44:10.914Z,1.97
2019-03-20T13:46:42.605Z,3.53
2019-03-20T13:49:13.161Z,4.80
2019-03-20T13:51:43.769Z,3.70
2019-03-20T13:54:14.537Z,2.60
2019-03-20T13:56:45.117Z,4.17
2019-03-20T13:59:15.675Z,2.70
2019-03-20T14:01:46.460Z,5.10
2019-03-20T14:04:36.271Z,3.07
2019-03-20T14:07:07.048Z,3.60
2019-03-20T14:09:37.777Z,6.10
2019-03-20T14:12:08.535Z,4.47
2019-03-20T14:14:40.079Z,2.60
2019-03-20T14:17:10.714Z,2.73
2019-03-20T14:20:00.682Z,3.57
2019-03-20T14:22:50.231Z,2.83
2019-03-20T14:25:21.085Z,3.35
2019-03-20T14:27:51.689Z,2.20
2019-03-20T14:30:24.026Z,5.83
2019-03-20T14:32:54.728Z,3.57
2019-03-20T14:35:25.291Z,2.77
2019-03-20T14:37:56.165Z,3.20
2019-03-20T14:40:35.407Z,3.00
2019-03-20T14:43:00.465Z,3.47
2019-03-20T14:45:31.287Z,4.37
2019-03-20T14:48:03.103Z,3.30
2019-03-20T14:50:33.647Z,2.97
2019-03-20T14:53:06.123Z,3.37
2019-03-20T14:55:38.426Z,4.87
2019-03-20T14:58:10.773Z,2.47
2019-03-20T15:00:41.373Z,4.67
2019-03-20T15:03:11.930Z,3.63
2019-03-20T15:05:42.619Z,3.23
2019-03-20T15:08:13.193Z,5.20
2019-03-20T15:10:46.124Z,7.07
2019-03-20T15:13:16.290Z,3.83
2019-03-20T15:15:50.053Z,3.97
2019-03-20T15:18:20.851Z,4.90
2019-03-20T15:20:51.720Z,4.23
2019-03-20T15:23:22.583Z,4.00
2019-03-20T15:25:53.145Z,3.70
2019-03-20T15:28:23.869Z,2.80
2019-03-20T15:30:54.933Z,2.10
2019-03-20T15:33:25.502Z,4.70
2019-03-20T15:35:56.365Z,3.43
2019-03-20T15:38:27.019Z,2.40
2019-03-20T15:40:57.471Z,4.17
2019-03-20T15:43:28.083Z,4.40
2019-03-20T15:45:58.847Z,3.97
2019-03-20T15:48:29.664Z,3.63
2019-03-20T15:51:02.070Z,3.53
2019-03-20T15:53:32.709Z,3.97
2019-03-20T15:56:03.299Z,4.50
2019-03-20T15:58:33.896Z,3.57
2019-03-20T16:01:04.566Z,4.40
2019-03-20T16:03:35.233Z,4.40
2019-03-20T16:06:05.770Z,3.00
2019-03-20T16:08:36.713Z,3.13
2019-03-20T16:11:07.236Z,2.93
2019-03-20T16:13:37.965Z,4.53
2019-03-20T16:16:08.632Z,6.43
2019-03-20T16:18:39.251Z,3.70
2019-03-20T16:21:09.887Z,2.73
2019-03-20T16:23:41.561Z,2.50
2019-03-20T16:26:12.215Z,2.30
2019-03-20T16:28:42.886Z,3.87
2019-03-20T16:31:13.415Z,6.97
2019-03-20T16:33:44.103Z,4.63
2019-03-20T16:36:14.626Z,3.90
2019-03-20T16:38:45.247Z,4.00
2019-03-20T16:41:17.046Z,3.73
2019-03-20T16:43:47.677Z,4.17
2019-03-20T16:46:18.287Z,2.00
2019-03-20T16:48:50.394Z,3.00
2019-03-20T16:51:21.235Z,2.73
2019-03-20T16:53:52.175Z,3.00
2019-03-20T16:56:22.880Z,3.37
2019-03-20T16:58:53.557Z,5.33
2019-03-20T17:01:24.532Z,5.40
2019-03-20T17:03:55.141Z,4.13
2019-03-20T17:06:25.811Z,1.97
2019-03-20T17:08:56.911Z,4.63
2019-03-20T17:11:38.091Z,3.50
2019-03-20T17:14:01.713Z,2.83
2019-03-20T17:16:32.587Z,5.00
2019-03-20T17:19:03.273Z,6.43
2019-03-20T17:21:33.873Z,12.60
2019-03-20T17:24:04.843Z,15.60
2019-03-20T17:26:35.433Z,4.90
2019-03-20T17:29:09.163Z,3.90
2019-03-20T17:31:38.315Z,2.60
2019-03-20T17:34:09.117Z,4.10
2019-03-20T17:36:39.739Z,2.93
2019-03-20T17:39:12.542Z,3.50
2019-03-20T17:41:43.244Z,4.33
2019-03-20T17:44:13.883Z,3.13
2019-03-20T17:46:44.527Z,3.10
2019-03-20T17:49:15.273Z,3.70
2019-03-20T17:51:47.859Z,5.13
2019-03-20T17:54:18.541Z,6.33
2019-03-20T17:56:49.316Z,4.53
2019-03-20T17:59:20.087Z,4.43
2019-03-20T18:01:50.640Z,6.47
2019-03-20T18:04:21.543Z,5.50
2019-03-20T18:06:52.453Z,4.60
2019-03-20T18:09:22.937Z,6.20
2019-03-20T18:11:53.667Z,5.77
2019-03-20T18:14:25.272Z,3.70
2019-03-20T18:17:14.880Z,3.57
2019-03-20T18:19:45.587Z,7.13
2019-03-20T18:22:16.284Z,5.67
2019-03-20T18:24:46.979Z,6.30
2019-03-20T18:27:17.964Z,5.63
2019-03-20T18:29:48.645Z,9.77
2019-03-20T18:32:19.109Z,8.03
2019-03-20T18:34:49.651Z,8.77
2019-03-20T18:37:20.540Z,9.60
2019-03-20T18:39:52.810Z,10.00
2019-03-20T18:42:23.385Z,8.90
2019-03-20T18:44:54.045Z,9.23
2019-03-20T18:47:26.124Z,11.77
2019-03-20T18:49:56.764Z,7.80
2019-03-20T18:52:27.611Z,7.03
2019-03-20T18:54:58.128Z,5.97
2019-03-20T18:57:48.221Z,6.53
2019-03-20T19:00:20.905Z,5.47
2019-03-20T19:02:51.953Z,5.00
2019-03-20T19:05:34.968Z,6.50
2019-03-20T19:08:06.232Z,6.57
2019-03-20T19:10:36.892Z,6.97
2019-03-20T19:13:09.084Z,7.83
2019-03-20T19:15:39.545Z,7.93
2019-03-20T19:18:11.117Z,5.80
2019-03-20T19:20:45.433Z,6.17
2019-03-20T19:23:16.191Z,6.30
2019-03-20T19:25:47.905Z,6.40
2019-03-20T19:28:18.686Z,5.63
2019-03-20T19:30:49.528Z,5.50
2019-03-20T19:33:20.045Z,5.10
2019-03-20T19:35:50.773Z,5.27
2019-03-20T19:38:21.315Z,5.50
2019-03-20T19:40:52.491Z,4.90
2019-03-20T19:43:23.090Z,6.73
2019-03-20T19:45:53.779Z,4.50
2019-03-20T19:48:24.394Z,6.93
2019-03-20T19:50:55.055Z,5.67
2019-03-20T19:53:26.055Z,8.63
2019-03-20T19:55:56.613Z,4.57
2019-03-20T19:58:27.243Z,9.33
2019-03-20T20:00:57.986Z,6.37
2019-03-20T20:03:28.830Z,6.97
2019-03-20T20:05:59.357Z,6.10
2019-03-20T20:08:29.927Z,7.57
2019-03-20T20:11:00.901Z,6.50
2019-03-20T20:13:31.612Z,6.00
2019-03-20T20:16:02.302Z,6.60
2019-03-20T20:18:33.077Z,6.20
2019-03-20T20:21:03.841Z,4.13
2019-03-20T20:23:34.500Z,5.50
2019-03-20T20:26:06.070Z,6.57
2019-03-20T20:28:36.678Z,4.90
2019-03-20T20:31:07.509Z,5.87
2019-03-20T20:33:38.350Z,6.50
2019-03-20T20:36:09.001Z,6.73
2019-03-20T20:38:39.771Z,9.00
2019-03-20T20:41:11.716Z,10.50
2019-03-20T20:43:42.328Z,7.77
2019-03-20T20:46:12.914Z,6.63
2019-03-20T20:48:43.660Z,5.70
2019-03-20T20:51:14.357Z,6.57
2019-03-20T20:53:44.955Z,5.47
2019-03-20T20:56:15.587Z,5.97
2019-03-20T20:58:46.135Z,5.87
2019-03-20T21:01:17.033Z,5.67
2019-03-20T21:03:47.630Z,7.63
2019-03-20T21:06:18.645Z,7.97
2019-03-20T21:08:49.436Z,8.17
2019-03-20T21:11:19.951Z,8.17
2019-03-20T21:13:51.299Z,8.50
2019-03-20T21:16:22.666Z,9.67
2019-03-20T21:19:34.395Z,10.23
2019-03-20T21:22:46.798Z,13.30
2019-03-20T21:25:19.588Z,13.43
2019-03-20T21:28:33.176Z,14.83
2019-03-20T21:31:54.040Z,11.90
2019-03-20T21:35:08.600Z,14.33
2019-03-20T21:38:05.813Z,10.73
2019-03-20T21:40:56.257Z,9.70
2019-03-20T21:44:07.536Z,11.40
2019-03-20T21:47:14.029Z,9.93
2019-03-20T21:49:45.339Z,11.03
2019-03-20T21:52:17.681Z,12.50
2019-03-20T21:55:33.657Z,16.43
2019-03-20T21:58:30.867Z,9.80
2019-03-20T22:01:57.765Z,10.27
2019-03-20T22:04:29.188Z,12.43
2019-03-20T22:07:12.952Z,7.77
2019-03-20T22:10:39.994Z,9.33
2019-03-20T22:13:34.043Z,6.80
2019-03-20T22:16:53.321Z,8.70
2019-03-20T22:20:09.184Z,13.90
2019-03-20T22:23:39.056Z,19.40
2019-03-20T22:27:08.728Z,14.40
2019-03-20T22:29:40.684Z,13.77
2019-03-20T22:33:03.827Z,17.10
2019-03-20T22:35:48.667Z,12.57
2019-03-20T22:38:42.382Z,12.07
2019-03-20T22:41:25.649Z,16.47
2019-03-20T22:44:00.999Z,12.97
2019-03-20T22:47:14.749Z,13.83
2019-03-20T22:50:16.589Z,11.47
2019-03-20T22:53:15.287Z,11.93
2019-03-20T22:56:29.979Z,6.90
2019-03-20T22:59:01.667Z,9.03
2019-03-20T23:01:55.182Z,10.63
2019-03-20T23:04:30.739Z,6.40
2019-03-20T23:07:01.782Z,7.00
2019-03-20T23:09:33.984Z,9.60
2019-03-20T23:12:08.297Z,8.67
2019-03-20T23:14:39.391Z,9.70
2019-03-20T23:17:10.639Z,7.80
2019-03-20T23:19:42.793Z,6.60
2019-03-20T23:22:13.875Z,8.80
2019-03-20T23:24:45.936Z,10.40
2019-03-20T23:27:20.562Z,9.20
2019-03-20T23:29:51.781Z,5.80
2019-03-20T23:32:22.712Z,6.80
2019-03-20T23:34:53.787Z,6.10
2019-03-20T23:37:25.121Z,7.20
2019-03-20T23:39:57.479Z,8.53
2019-03-20T23:42:29.039Z,9.23
2019-03-20T23:45:00.397Z,5.53
2019-03-20T23:47:56.461Z,7.20
2019-03-20T23:50:27.639Z,6.23
2019-03-20T23:52:59.921Z,8.73
2019-03-20T23:55:32.063Z,7.00
2019-03-20T23:58:03.349Z,7.40
